sensor_id;sensor_type;location;lat;lon;timestamp;P1;durP1;ratioP1;P2;durP2;ratioP2
30539;SDS011;17321;46.312;4.776;2024-01-07T00:01:48;1.92;;;1.73;;
30539;SDS011;17321;46.312;4.776;2024-01-07T00:04:17;1.88;;;1.77;;
30539;SDS011;17321;46.312;4.776;2024-01-07T00:09:10;2.30;;;1.83;;
30539;SDS011;17321;46.312;4.776;2024-01-07T00:11:37;1.83;;;1.67;;
30539;SDS011;17321;46.312;4.776;2024-01-07T00:14:04;2.45;;;2.22;;
30539;SDS011;17321;46.312;4.776;2024-01-07T00:16:30;5.22;;;3.78;;
30539;SDS011;17321;46.312;4.776;2024-01-07T00:18:56;1.95;;;1.85;;
30539;SDS011;17321;46.312;4.776;2024-01-07T00:21:22;1.92;;;1.83;;
30539;SDS011;17321;46.312;4.776;2024-01-07T00:23:48;3.67;;;2.60;;
30539;SDS011;17321;46.312;4.776;2024-01-07T00:26:14;3.40;;;2.30;;
30539;SDS011;17321;46.312;4.776;2024-01-07T00:28:40;2.60;;;2.40;;
30539;SDS011;17321;46.312;4.776;2024-01-07T00:31:06;3.42;;;2.60;;
30539;SDS011;17321;46.312;4.776;2024-01-07T00:33:35;2.38;;;2.17;;
30539;SDS011;17321;46.312;4.776;2024-01-07T00:36:02;5.05;;;2.80;;
30539;SDS011;17321;46.312;4.776;2024-01-07T00:38:28;3.03;;;2.83;;
30539;SDS011;17321;46.312;4.776;2024-01-07T00:40:54;3.70;;;3.10;;
30539;SDS011;17321;46.312;4.776;2024-01-07T00:43:20;3.65;;;3.35;;
30539;SDS011;17321;46.312;4.776;2024-01-07T00:45:46;6.18;;;3.28;;
30539;SDS011;17321;46.312;4.776;2024-01-07T00:48:13;3.63;;;3.25;;
30539;SDS011;17321;46.312;4.776;2024-01-07T00:50:40;4.13;;;3.75;;
30539;SDS011;17321;46.312;4.776;2024-01-07T00:53:06;5.70;;;4.40;;
30539;SDS011;17321;46.312;4.776;2024-01-07T00:55:32;5.18;;;4.38;;
30539;SDS011;17321;46.312;4.776;2024-01-07T00:58:00;4.70;;;4.20;;
30539;SDS011;17321;46.312;4.776;2024-01-07T01:00:26;5.80;;;4.50;;
30539;SDS011;17321;46.312;4.776;2024-01-07T01:02:53;5.15;;;4.50;;
30539;SDS011;17321;46.312;4.776;2024-01-07T01:05:19;4.75;;;4.03;;
30539;SDS011;17321;46.312;4.776;2024-01-07T01:07:45;5.25;;;4.75;;
30539;SDS011;17321;46.312;4.776;2024-01-07T01:10:11;5.72;;;5.00;;
30539;SDS011;17321;46.312;4.776;2024-01-07T01:12:39;5.25;;;4.57;;
30539;SDS011;17321;46.312;4.776;2024-01-07T01:15:06;5.78;;;5.22;;
30539;SDS011;17321;46.312;4.776;2024-01-07T01:17:32;5.50;;;5.00;;
30539;SDS011;17321;46.312;4.776;2024-01-07T01:19:58;5.68;;;5.18;;
30539;SDS011;17321;46.312;4.776;2024-01-07T01:22:24;5.50;;;5.00;;
30539;SDS011;17321;46.312;4.776;2024-01-07T01:24:50;9.80;;;5.95;;
30539;SDS011;17321;46.312;4.776;2024-01-07T01:27:17;6.97;;;6.28;;
30539;SDS011;17321;46.312;4.776;2024-01-07T01:29:43;7.18;;;6.13;;
30539;SDS011;17321;46.312;4.776;2024-01-07T01:32:09;8.02;;;6.53;;
30539;SDS011;17321;46.312;4.776;2024-01-07T01:34:36;7.50;;;6.70;;
30539;SDS011;17321;46.312;4.776;2024-01-07T01:37:03;7.30;;;6.60;;
30539;SDS011;17321;46.312;4.776;2024-01-07T01:39:29;7.70;;;6.78;;
30539;SDS011;17321;46.312;4.776;2024-01-07T01:41:55;8.70;;;7.03;;
30539;SDS011;17321;46.312;4.776;2024-01-07T01:44:23;9.80;;;7.40;;
30539;SDS011;17321;46.312;4.776;2024-01-07T01:46:49;8.90;;;7.15;;
30539;SDS011;17321;46.312;4.776;2024-01-07T01:49:15;6.63;;;5.95;;
30539;SDS011;17321;46.312;4.776;2024-01-07T01:51:42;8.55;;;6.90;;
30539;SDS011;17321;46.312;4.776;2024-01-07T01:54:08;8.73;;;6.82;;
30539;SDS011;17321;46.312;4.776;2024-01-07T01:56:34;7.50;;;6.30;;
30539;SDS011;17321;46.312;4.776;2024-01-07T01:59:00;8.13;;;6.50;;
30539;SDS011;17321;46.312;4.776;2024-01-07T02:01:26;8.25;;;6.57;;
30539;SDS011;17321;46.312;4.776;2024-01-07T02:03:52;6.88;;;6.18;;
30539;SDS011;17321;46.312;4.776;2024-01-07T02:06:19;7.60;;;6.35;;
30539;SDS011;17321;46.312;4.776;2024-01-07T02:08:45;7.53;;;6.10;;
30539;SDS011;17321;46.312;4.776;2024-01-07T02:11:18;6.72;;;6.03;;
30539;SDS011;17321;46.312;4.776;2024-01-07T02:13:44;8.10;;;7.03;;
30539;SDS011;17321;46.312;4.776;2024-01-07T02:16:11;6.40;;;5.45;;
30539;SDS011;17321;46.312;4.776;2024-01-07T02:18:37;8.55;;;6.18;;
30539;SDS011;17321;46.312;4.776;2024-01-07T02:21:03;7.40;;;5.65;;
30539;SDS011;17321;46.312;4.776;2024-01-07T02:23:29;7.05;;;5.70;;
30539;SDS011;17321;46.312;4.776;2024-01-07T02:25:55;8.27;;;6.13;;
30539;SDS011;17321;46.312;4.776;2024-01-07T02:28:21;6.70;;;5.97;;
30539;SDS011;17321;46.312;4.776;2024-01-07T02:30:47;8.02;;;7.00;;
30539;SDS011;17321;46.312;4.776;2024-01-07T02:33:13;7.88;;;6.53;;
30539;SDS011;17321;46.312;4.776;2024-01-07T02:35:39;7.35;;;6.45;;
30539;SDS011;17321;46.312;4.776;2024-01-07T02:38:05;8.45;;;6.55;;
30539;SDS011;17321;46.312;4.776;2024-01-07T02:40:31;9.35;;;7.18;;
30539;SDS011;17321;46.312;4.776;2024-01-07T02:42:57;7.72;;;6.50;;
30539;SDS011;17321;46.312;4.776;2024-01-07T02:45:23;7.72;;;6.95;;
30539;SDS011;17321;46.312;4.776;2024-01-07T02:47:49;8.88;;;6.93;;
30539;SDS011;17321;46.312;4.776;2024-01-07T02:50:15;8.65;;;7.43;;
30539;SDS011;17321;46.312;4.776;2024-01-07T02:52:42;6.88;;;6.18;;
30539;SDS011;17321;46.312;4.776;2024-01-07T02:55:08;8.07;;;6.68;;
30539;SDS011;17321;46.312;4.776;2024-01-07T02:57:34;7.53;;;6.43;;
30539;SDS011;17321;46.312;4.776;2024-01-07T03:00:00;9.07;;;7.05;;
30539;SDS011;17321;46.312;4.776;2024-01-07T03:02:27;6.93;;;6.22;;
30539;SDS011;17321;46.312;4.776;2024-01-07T03:04:53;7.82;;;6.90;;
30539;SDS011;17321;46.312;4.776;2024-01-07T03:07:19;7.32;;;6.60;;
30539;SDS011;17321;46.312;4.776;2024-01-07T03:09:45;7.80;;;6.72;;
30539;SDS011;17321;46.312;4.776;2024-01-07T03:12:11;7.53;;;6.72;;
30539;SDS011;17321;46.312;4.776;2024-01-07T03:14:37;6.57;;;5.32;;
30539;SDS011;17321;46.312;4.776;2024-01-07T03:17:03;7.20;;;6.47;;
30539;SDS011;17321;46.312;4.776;2024-01-07T03:19:29;5.38;;;4.88;;
30539;SDS011;17321;46.312;4.776;2024-01-07T03:21:55;6.43;;;5.75;;
30539;SDS011;17321;46.312;4.776;2024-01-07T03:24:21;5.65;;;5.05;;
30539;SDS011;17321;46.312;4.776;2024-01-07T03:26:47;5.97;;;5.18;;
30539;SDS011;17321;46.312;4.776;2024-01-07T03:29:13;6.93;;;4.50;;
30539;SDS011;17321;46.312;4.776;2024-01-07T03:31:39;5.72;;;4.38;;
30539;SDS011;17321;46.312;4.776;2024-01-07T03:34:05;6.30;;;4.38;;
30539;SDS011;17321;46.312;4.776;2024-01-07T03:36:31;4.90;;;4.35;;
30539;SDS011;17321;46.312;4.776;2024-01-07T03:38:57;5.22;;;4.63;;
30539;SDS011;17321;46.312;4.776;2024-01-07T03:41:23;5.03;;;4.57;;
30539;SDS011;17321;46.312;4.776;2024-01-07T03:43:50;5.20;;;4.50;;
30539;SDS011;17321;46.312;4.776;2024-01-07T03:46:16;5.40;;;4.57;;
30539;SDS011;17321;46.312;4.776;2024-01-07T03:48:42;4.20;;;3.83;;
30539;SDS011;17321;46.312;4.776;2024-01-07T03:51:09;5.70;;;4.10;;
30539;SDS011;17321;46.312;4.776;2024-01-07T03:53:35;4.53;;;4.13;;
30539;SDS011;17321;46.312;4.776;2024-01-07T03:56:01;6.38;;;4.03;;
30539;SDS011;17321;46.312;4.776;2024-01-07T03:58:27;4.65;;;4.25;;
30539;SDS011;17321;46.312;4.776;2024-01-07T04:00:53;5.35;;;4.00;;
30539;SDS011;17321;46.312;4.776;2024-01-07T04:03:19;5.10;;;4.60;;
30539;SDS011;17321;46.312;4.776;2024-01-07T04:05:45;4.18;;;3.88;;
30539;SDS011;17321;46.312;4.776;2024-01-07T04:08:11;4.43;;;4.03;;
30539;SDS011;17321;46.312;4.776;2024-01-07T04:10:37;4.80;;;3.65;;
30539;SDS011;17321;46.312;4.776;2024-01-07T04:13:04;5.00;;;3.65;;
30539;SDS011;17321;46.312;4.776;2024-01-07T04:15:30;3.72;;;3.42;;
30539;SDS011;17321;46.312;4.776;2024-01-07T04:17:56;4.18;;;3.38;;
30539;SDS011;17321;46.312;4.776;2024-01-07T04:20:22;3.88;;;3.53;;
30539;SDS011;17321;46.312;4.776;2024-01-07T04:22:48;3.08;;;2.83;;
30539;SDS011;17321;46.312;4.776;2024-01-07T04:25:14;4.18;;;3.78;;
30539;SDS011;17321;46.312;4.776;2024-01-07T04:27:40;4.32;;;3.92;;
30539;SDS011;17321;46.312;4.776;2024-01-07T04:30:06;4.05;;;3.28;;
30539;SDS011;17321;46.312;4.776;2024-01-07T04:32:32;6.45;;;3.72;;
30539;SDS011;17321;46.312;4.776;2024-01-07T04:34:59;6.10;;;4.28;;
30539;SDS011;17321;46.312;4.776;2024-01-07T04:37:25;5.00;;;3.75;;
30539;SDS011;17321;46.312;4.776;2024-01-07T04:39:51;4.03;;;3.67;;
30539;SDS011;17321;46.312;4.776;2024-01-07T04:42:17;4.05;;;3.42;;
30539;SDS011;17321;46.312;4.776;2024-01-07T04:44:43;6.30;;;3.63;;
30539;SDS011;17321;46.312;4.776;2024-01-07T04:47:25;4.72;;;4.22;;
30539;SDS011;17321;46.312;4.776;2024-01-07T04:49:51;4.78;;;4.28;;
30539;SDS011;17321;46.312;4.776;2024-01-07T04:52:18;5.30;;;4.80;;
30539;SDS011;17321;46.312;4.776;2024-01-07T04:54:44;4.85;;;4.35;;
30539;SDS011;17321;46.312;4.776;2024-01-07T04:57:10;4.65;;;4.15;;
30539;SDS011;17321;46.312;4.776;2024-01-07T04:59:36;4.38;;;3.97;;
30539;SDS011;17321;46.312;4.776;2024-01-07T05:02:02;4.00;;;3.60;;
30539;SDS011;17321;46.312;4.776;2024-01-07T05:04:28;4.55;;;4.15;;
30539;SDS011;17321;46.312;4.776;2024-01-07T05:06:54;5.50;;;4.22;;
30539;SDS011;17321;46.312;4.776;2024-01-07T05:09:20;6.45;;;4.43;;
30539;SDS011;17321;46.312;4.776;2024-01-07T05:11:46;14.32;;;4.63;;
30539;SDS011;17321;46.312;4.776;2024-01-07T05:14:12;4.85;;;4.30;;
30539;SDS011;17321;46.312;4.776;2024-01-07T05:16:38;4.47;;;4.07;;
30539;SDS011;17321;46.312;4.776;2024-01-07T05:19:06;4.28;;;3.88;;
30539;SDS011;17321;46.312;4.776;2024-01-07T05:21:32;4.95;;;4.45;;
30539;SDS011;17321;46.312;4.776;2024-01-07T05:23:57;4.55;;;4.15;;
30539;SDS011;17321;46.312;4.776;2024-01-07T05:26:23;6.40;;;4.90;;
30539;SDS011;17321;46.312;4.776;2024-01-07T05:28:49;4.60;;;4.13;;
30539;SDS011;17321;46.312;4.776;2024-01-07T05:31:16;4.68;;;4.28;;
30539;SDS011;17321;46.312;4.776;2024-01-07T05:33:42;9.43;;;5.63;;
30539;SDS011;17321;46.312;4.776;2024-01-07T05:36:08;7.05;;;4.55;;
30539;SDS011;17321;46.312;4.776;2024-01-07T05:38:34;4.95;;;4.47;;
30539;SDS011;17321;46.312;4.776;2024-01-07T05:41:00;4.68;;;4.22;;
30539;SDS011;17321;46.312;4.776;2024-01-07T05:43:26;6.78;;;4.43;;
30539;SDS011;17321;46.312;4.776;2024-01-07T05:45:52;5.05;;;4.55;;
30539;SDS011;17321;46.312;4.776;2024-01-07T05:48:21;6.75;;;4.70;;
30539;SDS011;17321;46.312;4.776;2024-01-07T05:50:47;5.90;;;4.72;;
30539;SDS011;17321;46.312;4.776;2024-01-07T05:53:13;9.45;;;5.15;;
30539;SDS011;17321;46.312;4.776;2024-01-07T05:55:39;4.97;;;3.67;;
30539;SDS011;17321;46.312;4.776;2024-01-07T05:58:05;5.15;;;4.65;;
30539;SDS011;17321;46.312;4.776;2024-01-07T06:00:31;4.57;;;4.18;;
30539;SDS011;17321;46.312;4.776;2024-01-07T06:02:57;7.00;;;4.82;;
30539;SDS011;17321;46.312;4.776;2024-01-07T06:05:23;5.22;;;4.70;;
30539;SDS011;17321;46.312;4.776;2024-01-07T06:07:49;6.00;;;4.63;;
30539;SDS011;17321;46.312;4.776;2024-01-07T06:10:15;5.03;;;4.50;;
30539;SDS011;17321;46.312;4.776;2024-01-07T06:12:41;4.60;;;4.18;;
30539;SDS011;17321;46.312;4.776;2024-01-07T06:15:07;5.15;;;4.65;;
30539;SDS011;17321;46.312;4.776;2024-01-07T06:17:33;5.53;;;4.90;;
30539;SDS011;17321;46.312;4.776;2024-01-07T06:19:59;5.13;;;4.63;;
30539;SDS011;17321;46.312;4.776;2024-01-07T06:22:25;4.95;;;4.35;;
30539;SDS011;17321;46.312;4.776;2024-01-07T06:24:51;6.57;;;4.40;;
30539;SDS011;17321;46.312;4.776;2024-01-07T06:27:17;5.07;;;4.53;;
30539;SDS011;17321;46.312;4.776;2024-01-07T06:29:43;5.07;;;4.28;;
30539;SDS011;17321;46.312;4.776;2024-01-07T06:32:09;4.43;;;4.03;;
30539;SDS011;17321;46.312;4.776;2024-01-07T06:34:35;4.30;;;3.85;;
30539;SDS011;17321;46.312;4.776;2024-01-07T06:37:01;5.28;;;4.65;;
30539;SDS011;17321;46.312;4.776;2024-01-07T06:39:27;4.18;;;3.75;;
30539;SDS011;17321;46.312;4.776;2024-01-07T06:41:53;4.68;;;3.70;;
30539;SDS011;17321;46.312;4.776;2024-01-07T06:44:19;4.60;;;4.15;;
30539;SDS011;17321;46.312;4.776;2024-01-07T06:46:46;4.80;;;4.13;;
30539;SDS011;17321;46.312;4.776;2024-01-07T06:49:12;4.40;;;4.00;;
30539;SDS011;17321;46.312;4.776;2024-01-07T06:51:38;4.28;;;3.88;;
30539;SDS011;17321;46.312;4.776;2024-01-07T06:54:04;4.35;;;3.95;;
30539;SDS011;17321;46.312;4.776;2024-01-07T06:56:30;4.28;;;3.88;;
30539;SDS011;17321;46.312;4.776;2024-01-07T06:58:56;5.05;;;3.90;;
30539;SDS011;17321;46.312;4.776;2024-01-07T07:01:22;5.28;;;4.63;;
30539;SDS011;17321;46.312;4.776;2024-01-07T07:03:49;8.85;;;4.18;;
30539;SDS011;17321;46.312;4.776;2024-01-07T07:06:15;4.65;;;3.90;;
30539;SDS011;17321;46.312;4.776;2024-01-07T07:08:42;3.97;;;3.58;;
30539;SDS011;17321;46.312;4.776;2024-01-07T07:11:08;4.07;;;3.67;;
30539;SDS011;17321;46.312;4.776;2024-01-07T07:13:34;3.97;;;3.58;;
30539;SDS011;17321;46.312;4.776;2024-01-07T07:16:00;4.20;;;3.80;;
30539;SDS011;17321;46.312;4.776;2024-01-07T07:18:26;4.97;;;3.95;;
30539;SDS011;17321;46.312;4.776;2024-01-07T07:20:52;3.50;;;2.78;;
30539;SDS011;17321;46.312;4.776;2024-01-07T07:23:18;4.25;;;3.75;;
30539;SDS011;17321;46.312;4.776;2024-01-07T07:25:44;4.65;;;3.95;;
30539;SDS011;17321;46.312;4.776;2024-01-07T07:28:10;3.70;;;3.40;;
30539;SDS011;17321;46.312;4.776;2024-01-07T07:30:37;3.75;;;3.30;;
30539;SDS011;17321;46.312;4.776;2024-01-07T07:33:03;3.70;;;3.35;;
30539;SDS011;17321;46.312;4.776;2024-01-07T07:35:29;3.83;;;3.50;;
30539;SDS011;17321;46.312;4.776;2024-01-07T07:37:55;3.88;;;3.58;;
30539;SDS011;17321;46.312;4.776;2024-01-07T07:40:21;3.88;;;3.53;;
30539;SDS011;17321;46.312;4.776;2024-01-07T07:42:47;3.60;;;3.30;;
30539;SDS011;17321;46.312;4.776;2024-01-07T07:45:13;3.17;;;2.97;;
30539;SDS011;17321;46.312;4.776;2024-01-07T07:47:39;4.07;;;3.67;;
30539;SDS011;17321;46.312;4.776;2024-01-07T07:50:10;3.78;;;3.47;;
30539;SDS011;17321;46.312;4.776;2024-01-07T07:52:36;3.75;;;3.45;;
30539;SDS011;17321;46.312;4.776;2024-01-07T07:55:02;4.75;;;3.53;;
30539;SDS011;17321;46.312;4.776;2024-01-07T07:57:28;3.67;;;3.38;;
30539;SDS011;17321;46.312;4.776;2024-01-07T07:59:54;4.25;;;3.85;;
30539;SDS011;17321;46.312;4.776;2024-01-07T08:02:20;4.00;;;3.60;;
30539;SDS011;17321;46.312;4.776;2024-01-07T08:04:47;3.90;;;3.55;;
30539;SDS011;17321;46.312;4.776;2024-01-07T08:07:13;4.85;;;3.85;;
30539;SDS011;17321;46.312;4.776;2024-01-07T08:09:39;4.30;;;3.90;;
30539;SDS011;17321;46.312;4.776;2024-01-07T08:12:05;3.78;;;3.45;;
30539;SDS011;17321;46.312;4.776;2024-01-07T08:14:32;4.45;;;4.05;;
30539;SDS011;17321;46.312;4.776;2024-01-07T08:16:58;3.88;;;3.58;;
30539;SDS011;17321;46.312;4.776;2024-01-07T08:19:24;4.18;;;3.78;;
30539;SDS011;17321;46.312;4.776;2024-01-07T08:21:50;4.18;;;3.78;;
30539;SDS011;17321;46.312;4.776;2024-01-07T08:24:17;5.10;;;4.07;;
30539;SDS011;17321;46.312;4.776;2024-01-07T08:26:43;5.10;;;3.97;;
30539;SDS011;17321;46.312;4.776;2024-01-07T08:29:09;4.15;;;3.75;;
30539;SDS011;17321;46.312;4.776;2024-01-07T08:31:36;4.43;;;4.03;;
30539;SDS011;17321;46.312;4.776;2024-01-07T08:34:02;5.85;;;4.43;;
30539;SDS011;17321;46.312;4.776;2024-01-07T08:36:28;5.63;;;4.05;;
30539;SDS011;17321;46.312;4.776;2024-01-07T08:38:54;4.32;;;3.92;;
30539;SDS011;17321;46.312;4.776;2024-01-07T08:41:20;7.53;;;4.55;;
30539;SDS011;17321;46.312;4.776;2024-01-07T08:43:46;5.95;;;3.80;;
30539;SDS011;17321;46.312;4.776;2024-01-07T08:46:12;5.95;;;4.00;;
30539;SDS011;17321;46.312;4.776;2024-01-07T08:48:41;4.95;;;4.45;;
30539;SDS011;17321;46.312;4.776;2024-01-07T08:51:07;4.63;;;3.95;;
30539;SDS011;17321;46.312;4.776;2024-01-07T08:53:33;10.02;;;6.10;;
30539;SDS011;17321;46.312;4.776;2024-01-07T08:55:59;3.97;;;3.58;;
30539;SDS011;17321;46.312;4.776;2024-01-07T08:58:25;5.65;;;4.47;;
30539;SDS011;17321;46.312;4.776;2024-01-07T09:00:51;5.18;;;4.53;;
30539;SDS011;17321;46.312;4.776;2024-01-07T09:03:17;6.82;;;4.38;;
30539;SDS011;17321;46.312;4.776;2024-01-07T09:05:43;4.28;;;3.88;;
30539;SDS011;17321;46.312;4.776;2024-01-07T09:08:10;5.03;;;4.53;;
30539;SDS011;17321;46.312;4.776;2024-01-07T09:10:39;4.45;;;4.05;;
30539;SDS011;17321;46.312;4.776;2024-01-07T09:13:05;4.07;;;3.78;;
30539;SDS011;17321;46.312;4.776;2024-01-07T09:15:31;4.95;;;4.32;;
30539;SDS011;17321;46.312;4.776;2024-01-07T09:17:57;4.72;;;4.22;;
30539;SDS011;17321;46.312;4.776;2024-01-07T09:20:24;5.43;;;3.90;;
30539;SDS011;17321;46.312;4.776;2024-01-07T09:22:50;7.78;;;4.13;;
30539;SDS011;17321;46.312;4.776;2024-01-07T09:25:16;5.22;;;4.78;;
30539;SDS011;17321;46.312;4.776;2024-01-07T09:27:42;6.13;;;4.47;;
30539;SDS011;17321;46.312;4.776;2024-01-07T09:30:08;5.18;;;4.53;;
30539;SDS011;17321;46.312;4.776;2024-01-07T09:32:40;8.82;;;5.47;;
30539;SDS011;17321;46.312;4.776;2024-01-07T09:35:06;6.90;;;4.40;;
30539;SDS011;17321;46.312;4.776;2024-01-07T09:37:32;6.45;;;4.90;;
30539;SDS011;17321;46.312;4.776;2024-01-07T09:39:58;5.72;;;5.10;;
30539;SDS011;17321;46.312;4.776;2024-01-07T09:42:24;7.18;;;5.38;;
30539;SDS011;17321;46.312;4.776;2024-01-07T09:44:50;5.60;;;5.10;;
30539;SDS011;17321;46.312;4.776;2024-01-07T09:47:16;6.53;;;5.28;;
30539;SDS011;17321;46.312;4.776;2024-01-07T09:49:43;7.05;;;5.40;;
30539;SDS011;17321;46.312;4.776;2024-01-07T09:52:09;6.80;;;5.93;;
30539;SDS011;17321;46.312;4.776;2024-01-07T09:54:36;6.93;;;5.72;;
30539;SDS011;17321;46.312;4.776;2024-01-07T09:57:03;9.57;;;6.20;;
30539;SDS011;17321;46.312;4.776;2024-01-07T09:59:33;7.80;;;6.13;;
30539;SDS011;17321;46.312;4.776;2024-01-07T10:01:59;5.38;;;4.88;;
30539;SDS011;17321;46.312;4.776;2024-01-07T10:04:25;7.57;;;5.35;;
30539;SDS011;17321;46.312;4.776;2024-01-07T10:06:52;7.85;;;5.85;;
30539;SDS011;17321;46.312;4.776;2024-01-07T10:09:19;7.00;;;5.35;;
30539;SDS011;17321;46.312;4.776;2024-01-07T10:11:45;6.07;;;5.43;;
30539;SDS011;17321;46.312;4.776;2024-01-07T10:14:11;7.18;;;6.32;;
30539;SDS011;17321;46.312;4.776;2024-01-07T10:16:37;8.95;;;5.85;;
30539;SDS011;17321;46.312;4.776;2024-01-07T10:19:03;7.65;;;5.35;;
30539;SDS011;17321;46.312;4.776;2024-01-07T10:21:29;6.35;;;5.55;;
30539;SDS011;17321;46.312;4.776;2024-01-07T10:24:08;6.05;;;5.45;;
30539;SDS011;17321;46.312;4.776;2024-01-07T10:26:35;6.10;;;5.50;;
30539;SDS011;17321;46.312;4.776;2024-01-07T10:29:01;8.30;;;5.45;;
30539;SDS011;17321;46.312;4.776;2024-01-07T10:31:27;7.55;;;5.82;;
30539;SDS011;17321;46.312;4.776;2024-01-07T10:33:54;6.93;;;5.53;;
30539;SDS011;17321;46.312;4.776;2024-01-07T10:36:21;8.05;;;5.25;;
30539;SDS011;17321;46.312;4.776;2024-01-07T10:38:48;6.43;;;5.00;;
30539;SDS011;17321;46.312;4.776;2024-01-07T10:41:14;7.00;;;5.82;;
30539;SDS011;17321;46.312;4.776;2024-01-07T10:43:40;7.72;;;6.22;;
30539;SDS011;17321;46.312;4.776;2024-01-07T10:46:07;7.32;;;5.88;;
30539;SDS011;17321;46.312;4.776;2024-01-07T10:48:35;10.38;;;6.18;;
30539;SDS011;17321;46.312;4.776;2024-01-07T10:51:03;6.75;;;5.68;;
30539;SDS011;17321;46.312;4.776;2024-01-07T10:53:33;5.65;;;4.78;;
30539;SDS011;17321;46.312;4.776;2024-01-07T10:56:05;8.80;;;5.22;;
30539;SDS011;17321;46.312;4.776;2024-01-07T10:58:32;5.05;;;4.45;;
30539;SDS011;17321;46.312;4.776;2024-01-07T11:01:01;4.18;;;3.78;;
30539;SDS011;17321;46.312;4.776;2024-01-07T11:06:00;5.63;;;4.55;;
30539;SDS011;17321;46.312;4.776;2024-01-07T11:11:07;6.78;;;4.45;;
30539;SDS011;17321;46.312;4.776;2024-01-07T11:13:36;6.60;;;4.97;;
30539;SDS011;17321;46.312;4.776;2024-01-07T11:16:06;5.30;;;4.70;;
30539;SDS011;17321;46.312;4.776;2024-01-07T11:18:46;5.53;;;4.88;;
30539;SDS011;17321;46.312;4.776;2024-01-07T11:21:20;5.80;;;4.97;;
30539;SDS011;17321;46.312;4.776;2024-01-07T11:23:47;5.70;;;5.10;;
30539;SDS011;17321;46.312;4.776;2024-01-07T11:26:13;5.82;;;5.13;;
30539;SDS011;17321;46.312;4.776;2024-01-07T11:31:08;7.90;;;5.50;;
30539;SDS011;17321;46.312;4.776;2024-01-07T11:33:36;7.05;;;5.60;;
30539;SDS011;17321;46.312;4.776;2024-01-07T11:36:02;8.48;;;5.25;;
30539;SDS011;17321;46.312;4.776;2024-01-07T11:38:29;6.05;;;5.38;;
30539;SDS011;17321;46.312;4.776;2024-01-07T11:40:55;8.93;;;6.53;;
30539;SDS011;17321;46.312;4.776;2024-01-07T11:43:22;7.07;;;5.47;;
30539;SDS011;17321;46.312;4.776;2024-01-07T11:45:51;7.63;;;5.75;;
30539;SDS011;17321;46.312;4.776;2024-01-07T11:48:18;6.70;;;5.47;;
30539;SDS011;17321;46.312;4.776;2024-01-07T11:50:44;7.75;;;5.90;;
30539;SDS011;17321;46.312;4.776;2024-01-07T11:53:13;11.23;;;6.03;;
30539;SDS011;17321;46.312;4.776;2024-01-07T11:55:39;6.15;;;5.05;;
30539;SDS011;17321;46.312;4.776;2024-01-07T11:58:05;7.40;;;6.30;;
30539;SDS011;17321;46.312;4.776;2024-01-07T12:00:32;7.85;;;5.95;;
30539;SDS011;17321;46.312;4.776;2024-01-07T12:03:01;9.05;;;6.10;;
30539;SDS011;17321;46.312;4.776;2024-01-07T12:07:53;11.05;;;7.85;;
30539;SDS011;17321;46.312;4.776;2024-01-07T12:10:19;10.85;;;7.40;;
30539;SDS011;17321;46.312;4.776;2024-01-07T12:12:45;8.20;;;6.82;;
30539;SDS011;17321;46.312;4.776;2024-01-07T12:15:12;11.38;;;7.93;;
30539;SDS011;17321;46.312;4.776;2024-01-07T12:17:38;10.20;;;7.82;;
30539;SDS011;17321;46.312;4.776;2024-01-07T12:20:04;11.15;;;8.52;;
30539;SDS011;17321;46.312;4.776;2024-01-07T12:22:32;9.93;;;8.13;;
30539;SDS011;17321;46.312;4.776;2024-01-07T12:25:07;11.57;;;8.70;;
30539;SDS011;17321;46.312;4.776;2024-01-07T12:27:33;13.00;;;9.13;;
30539;SDS011;17321;46.312;4.776;2024-01-07T12:30:02;13.55;;;9.07;;
30539;SDS011;17321;46.312;4.776;2024-01-07T12:32:30;13.55;;;9.27;;
30539;SDS011;17321;46.312;4.776;2024-01-07T12:34:59;13.75;;;9.60;;
30539;SDS011;17321;46.312;4.776;2024-01-07T12:37:27;15.43;;;9.57;;
30539;SDS011;17321;46.312;4.776;2024-01-07T12:39:53;12.75;;;8.63;;
30539;SDS011;17321;46.312;4.776;2024-01-07T12:42:19;15.68;;;10.70;;
30539;SDS011;17321;46.312;4.776;2024-01-07T12:44:49;12.98;;;9.23;;
30539;SDS011;17321;46.312;4.776;2024-01-07T12:47:15;14.13;;;10.00;;
30539;SDS011;17321;46.312;4.776;2024-01-07T12:49:41;14.13;;;9.02;;
30539;SDS011;17321;46.312;4.776;2024-01-07T12:52:07;13.48;;;9.68;;
30539;SDS011;17321;46.312;4.776;2024-01-07T12:54:34;14.93;;;10.20;;
30539;SDS011;17321;46.312;4.776;2024-01-07T12:57:00;14.10;;;10.30;;
30539;SDS011;17321;46.312;4.776;2024-01-07T12:59:26;17.05;;;10.73;;
30539;SDS011;17321;46.312;4.776;2024-01-07T13:01:52;15.80;;;11.18;;
30539;SDS011;17321;46.312;4.776;2024-01-07T13:04:18;17.67;;;11.00;;
30539;SDS011;17321;46.312;4.776;2024-01-07T13:06:44;16.42;;;10.98;;
30539;SDS011;17321;46.312;4.776;2024-01-07T13:09:11;13.98;;;10.63;;
30539;SDS011;17321;46.312;4.776;2024-01-07T13:11:37;17.00;;;11.20;;
30539;SDS011;17321;46.312;4.776;2024-01-07T13:14:03;19.67;;;11.52;;
30539;SDS011;17321;46.312;4.776;2024-01-07T13:16:29;18.10;;;12.30;;
30539;SDS011;17321;46.312;4.776;2024-01-07T13:18:55;16.60;;;10.80;;
30539;SDS011;17321;46.312;4.776;2024-01-07T13:21:21;18.30;;;12.38;;
30539;SDS011;17321;46.312;4.776;2024-01-07T13:23:47;17.60;;;11.73;;
30539;SDS011;17321;46.312;4.776;2024-01-07T13:26:13;16.20;;;10.52;;
30539;SDS011;17321;46.312;4.776;2024-01-07T13:28:39;17.00;;;11.00;;
30539;SDS011;17321;46.312;4.776;2024-01-07T13:31:06;17.30;;;11.60;;
30539;SDS011;17321;46.312;4.776;2024-01-07T13:33:32;13.68;;;10.32;;
30539;SDS011;17321;46.312;4.776;2024-01-07T13:35:58;16.17;;;11.30;;
30539;SDS011;17321;46.312;4.776;2024-01-07T13:38:24;17.83;;;11.25;;
30539;SDS011;17321;46.312;4.776;2024-01-07T13:40:50;15.35;;;11.07;;
30539;SDS011;17321;46.312;4.776;2024-01-07T13:43:17;15.15;;;9.80;;
30539;SDS011;17321;46.312;4.776;2024-01-07T13:45:43;15.68;;;10.13;;
30539;SDS011;17321;46.312;4.776;2024-01-07T13:48:09;17.42;;;10.45;;
30539;SDS011;17321;46.312;4.776;2024-01-07T13:50:35;15.55;;;10.57;;
30539;SDS011;17321;46.312;4.776;2024-01-07T13:53:01;18.63;;;12.57;;
30539;SDS011;17321;46.312;4.776;2024-01-07T13:55:27;16.42;;;11.50;;
30539;SDS011;17321;46.312;4.776;2024-01-07T13:57:53;18.75;;;10.95;;
30539;SDS011;17321;46.312;4.776;2024-01-07T14:00:20;16.63;;;11.55;;
30539;SDS011;17321;46.312;4.776;2024-01-07T14:02:46;16.10;;;11.18;;
30539;SDS011;17321;46.312;4.776;2024-01-07T14:05:14;16.27;;;10.52;;
30539;SDS011;17321;46.312;4.776;2024-01-07T14:07:40;14.02;;;10.02;;
30539;SDS011;17321;46.312;4.776;2024-01-07T14:10:07;13.52;;;9.95;;
30539;SDS011;17321;46.312;4.776;2024-01-07T14:12:33;14.98;;;10.27;;
30539;SDS011;17321;46.312;4.776;2024-01-07T14:15:00;16.00;;;11.07;;
30539;SDS011;17321;46.312;4.776;2024-01-07T14:17:26;16.67;;;10.85;;
30539;SDS011;17321;46.312;4.776;2024-01-07T14:19:52;15.70;;;9.90;;
30539;SDS011;17321;46.312;4.776;2024-01-07T14:22:21;18.27;;;10.48;;
30539;SDS011;17321;46.312;4.776;2024-01-07T14:24:48;18.90;;;10.82;;
30539;SDS011;17321;46.312;4.776;2024-01-07T14:27:17;19.08;;;11.35;;
30539;SDS011;17321;46.312;4.776;2024-01-07T14:29:43;16.30;;;10.40;;
30539;SDS011;17321;46.312;4.776;2024-01-07T14:32:10;16.88;;;10.77;;
30539;SDS011;17321;46.312;4.776;2024-01-07T14:34:39;17.85;;;11.25;;
30539;SDS011;17321;46.312;4.776;2024-01-07T14:37:06;17.80;;;11.73;;
30539;SDS011;17321;46.312;4.776;2024-01-07T14:39:33;16.48;;;10.38;;
30539;SDS011;17321;46.312;4.776;2024-01-07T14:41:59;20.50;;;12.40;;
30539;SDS011;17321;46.312;4.776;2024-01-07T14:44:25;16.85;;;11.00;;
30539;SDS011;17321;46.312;4.776;2024-01-07T14:46:51;17.70;;;11.13;;
30539;SDS011;17321;46.312;4.776;2024-01-07T14:49:17;15.95;;;10.45;;
30539;SDS011;17321;46.312;4.776;2024-01-07T14:51:43;18.52;;;11.50;;